Terminal Aerodrome Forecast
Issued by NWS

Home | Current Version | Previous Version | Graphics & Text | Print | Product List | Glossary On
Versions: 1 2 3 4 5 6 7 8 9 10 11 12 13 14
263
FTUS42 KMHX 050541
TAFPGV
TAF
KPGV 050541Z 0506/0606 36011G19KT 5SM -RA OVC007
     FM051000 36012G20KT 6SM -RA SCT007 OVC012
     FM051200 35015G22KT P6SM VCSH SCT007 OVC020
     FM051500 34015G21KT P6SM SCT035
     FM052230 00000KT P6SM SKC
      AMD LTD TO CLD VIS AND WIND=

USA.gov is the U.S. government's official web portal to all federal, state and local government web resources and services.